createdAt,value
2022-12-20T00:01:38.453Z,32.78
2022-12-20T00:04:40.878Z,33.50
2022-12-20T00:07:43.237Z,32.72
2022-12-20T00:10:46.754Z,34.28
2022-12-20T00:13:49.320Z,33.45
2022-12-20T00:16:51.933Z,34.53
2022-12-20T00:19:54.034Z,33.40
2022-12-20T00:22:57.260Z,33.08
2022-12-20T00:26:08.007Z,34.72
2022-12-20T00:29:10.589Z,34.65
2022-12-20T00:32:14.172Z,34.60
2022-12-20T00:35:16.374Z,32.90
2022-12-20T00:38:18.566Z,34.55
2022-12-20T00:41:26.819Z,35.03
2022-12-20T00:44:28.959Z,32.85
2022-12-20T00:47:31.092Z,33.33
2022-12-20T00:50:33.314Z,35.47
2022-12-20T00:53:36.660Z,33.45
2022-12-20T00:56:38.885Z,31.85
2022-12-20T00:59:41.118Z,29.70
2022-12-20T01:02:44.461Z,30.05
2022-12-20T01:06:01.423Z,27.42
2022-12-20T01:09:03.938Z,29.85
2022-12-20T01:12:08.584Z,30.63
2022-12-20T01:15:12.619Z,26.90
2022-12-20T01:18:14.809Z,28.15
2022-12-20T01:21:19.348Z,28.27
2022-12-20T01:24:21.488Z,28.98
2022-12-20T01:27:23.687Z,25.20
2022-12-20T01:30:25.817Z,26.80
2022-12-20T01:33:28.577Z,26.30
2022-12-20T01:36:33.758Z,26.67
2022-12-20T01:39:36.559Z,28.05
2022-12-20T01:42:38.829Z,26.70
2022-12-20T01:45:41.448Z,29.20
2022-12-20T01:48:47.312Z,26.15
2022-12-20T01:52:00.768Z,26.52
2022-12-20T01:55:05.675Z,27.20
2022-12-20T01:58:13.034Z,28.95
2022-12-20T02:01:16.258Z,27.80
2022-12-20T02:04:18.256Z,28.00
2022-12-20T02:07:30.012Z,28.00
2022-12-20T02:10:42.989Z,25.83
2022-12-20T02:14:06.863Z,26.55
2022-12-20T02:17:19.041Z,26.10
2022-12-20T02:20:35.865Z,23.85
2022-12-20T02:24:02.194Z,23.20
2022-12-20T02:27:10.175Z,26.83
2022-12-20T02:30:14.870Z,24.52
2022-12-20T02:33:19.173Z,22.70
2022-12-20T02:36:21.588Z,22.05
2022-12-20T02:39:29.006Z,21.75
2022-12-20T02:42:33.816Z,20.63
2022-12-20T02:45:37.732Z,19.67
2022-12-20T02:48:41.953Z,17.77
2022-12-20T02:51:48.642Z,19.15
2022-12-20T02:54:50.933Z,20.00
2022-12-20T02:58:02.984Z,20.35
2022-12-20T03:01:11.072Z,20.58
2022-12-20T03:04:13.717Z,18.75
2022-12-20T03:07:15.913Z,20.38
2022-12-20T03:10:19.325Z,19.58
2022-12-20T03:13:23.613Z,19.33
2022-12-20T03:16:52.604Z,18.40
2022-12-20T03:19:54.807Z,20.08
2022-12-20T03:22:56.871Z,22.27
2022-12-20T03:25:58.990Z,22.55
2022-12-20T03:29:12.377Z,23.40
2022-12-20T03:32:15.538Z,21.27
2022-12-20T03:35:20.036Z,21.75
2022-12-20T03:38:22.405Z,20.58
2022-12-20T03:41:25.949Z,20.42
2022-12-20T03:44:28.431Z,20.05
2022-12-20T03:47:30.838Z,19.88
2022-12-20T03:50:33.388Z,20.05
2022-12-20T03:53:39.120Z,20.58
2022-12-20T03:56:41.313Z,18.88
2022-12-20T03:59:43.718Z,20.10
2022-12-20T04:02:50.575Z,17.65
2022-12-20T04:05:53.497Z,20.35
2022-12-20T04:08:55.857Z,20.77
2022-12-20T04:12:04.150Z,20.88
2022-12-20T04:15:10.049Z,21.85
2022-12-20T04:18:14.726Z,19.88
2022-12-20T04:21:32.564Z,19.92
2022-12-20T04:24:34.715Z,19.35
2022-12-20T04:27:58.881Z,21.02
2022-12-20T04:31:02.651Z,22.65
2022-12-20T04:34:08.361Z,19.80
2022-12-20T04:37:11.092Z,19.77
2022-12-20T04:40:20.850Z,18.88
2022-12-20T04:43:28.399Z,17.95
2022-12-20T04:46:34.815Z,18.80
2022-12-20T04:49:39.366Z,20.45
2022-12-20T04:53:00.833Z,22.05
2022-12-20T04:56:04.850Z,18.15
2022-12-20T04:59:07.036Z,20.50
2022-12-20T05:02:09.369Z,19.35
2022-12-20T05:05:31.791Z,21.42
2022-12-20T05:08:34.719Z,21.48
2022-12-20T05:11:37.254Z,21.30
2022-12-20T05:14:42.961Z,18.95
2022-12-20T05:17:46.741Z,17.77
2022-12-20T05:21:09.678Z,18.33
2022-12-20T05:24:31.026Z,19.75
2022-12-20T05:27:45.601Z,20.33
2022-12-20T05:30:47.794Z,17.33
2022-12-20T05:33:50.059Z,18.42
2022-12-20T05:36:52.535Z,16.92
2022-12-20T05:39:56.387Z,18.05
2022-12-20T05:42:59.851Z,17.50
2022-12-20T05:46:10.913Z,18.05
2022-12-20T05:49:25.369Z,19.20
2022-12-20T05:52:28.447Z,18.20
2022-12-20T05:55:30.900Z,19.77
2022-12-20T05:58:33.651Z,19.38
2022-12-20T06:01:38.770Z,16.70
2022-12-20T06:04:41.488Z,19.55
2022-12-20T06:07:53.004Z,18.38
2022-12-20T06:10:59.667Z,17.88
2022-12-20T06:14:01.923Z,16.33
2022-12-20T06:17:05.352Z,19.52
2022-12-20T06:20:10.066Z,16.65
2022-12-20T06:23:12.124Z,17.23
2022-12-20T06:29:26.022Z,17.10
2022-12-20T06:32:40.483Z,14.65
2022-12-20T06:35:44.488Z,14.55
2022-12-20T06:38:46.629Z,18.33
2022-12-20T06:41:50.140Z,16.13
2022-12-20T06:44:52.837Z,15.52
2022-12-20T06:47:55.042Z,15.73
2022-12-20T06:50:58.905Z,12.55
2022-12-20T06:54:03.055Z,9.93
2022-12-20T06:57:08.414Z,9.68
2022-12-20T07:00:12.908Z,10.27
2022-12-20T07:03:16.402Z,12.32
2022-12-20T07:06:19.856Z,14.43
2022-12-20T07:09:22.241Z,16.67
2022-12-20T07:12:24.640Z,14.32
2022-12-20T07:15:27.997Z,16.83
2022-12-20T07:18:30.592Z,20.83
2022-12-20T07:21:33.122Z,22.98
2022-12-20T07:24:36.299Z,19.27
2022-12-20T07:27:39.865Z,16.38
2022-12-20T07:30:41.927Z,13.43
2022-12-20T07:33:45.584Z,13.38
2022-12-20T07:36:48.491Z,14.88
2022-12-20T07:39:52.098Z,10.50
2022-12-20T07:42:55.063Z,10.63
2022-12-20T07:46:06.982Z,10.80
2022-12-20T07:49:09.636Z,14.25
2022-12-20T07:52:15.312Z,14.90
2022-12-20T07:55:18.126Z,11.60
2022-12-20T07:58:20.898Z,12.70
2022-12-20T08:01:23.190Z,11.68
2022-12-20T08:04:30.351Z,11.27
2022-12-20T08:07:32.637Z,10.35
2022-12-20T08:10:35.033Z,10.63
2022-12-20T08:13:42.629Z,10.80
2022-12-20T08:16:48.310Z,9.18
2022-12-20T08:19:54.739Z,9.23
2022-12-20T08:22:57.002Z,8.55
2022-12-20T08:26:01.860Z,9.80
2022-12-20T08:29:03.915Z,10.48
2022-12-20T08:32:07.704Z,8.27
2022-12-20T08:35:10.075Z,9.40
2022-12-20T08:38:12.528Z,8.70
2022-12-20T08:41:15.963Z,10.85
2022-12-20T08:44:18.036Z,9.35
2022-12-20T08:47:20.325Z,8.80
2022-12-20T08:50:23.152Z,8.57
2022-12-20T08:53:25.516Z,9.43
2022-12-20T08:56:27.636Z,8.15
2022-12-20T08:59:30.109Z,8.88
2022-12-20T09:02:32.680Z,8.38
2022-12-20T09:05:34.942Z,8.57
2022-12-20T09:08:38.781Z,8.98
2022-12-20T09:11:40.960Z,9.43
2022-12-20T09:14:43.087Z,9.07
2022-12-20T09:17:45.346Z,8.55
2022-12-20T09:20:47.611Z,8.93
2022-12-20T09:23:54.960Z,7.60
2022-12-20T09:26:57.064Z,7.43
2022-12-20T09:29:59.203Z,7.22
2022-12-20T09:33:09.715Z,8.23
2022-12-20T09:36:14.902Z,8.73
2022-12-20T09:39:16.972Z,8.85
2022-12-20T09:42:24.952Z,8.07
2022-12-20T09:45:30.373Z,7.68
2022-12-20T09:48:35.718Z,7.25
2022-12-20T09:52:15.413Z,6.93
2022-12-20T09:55:39.583Z,6.15
2022-12-20T09:59:05.192Z,6.78
2022-12-20T10:02:53.067Z,6.45
2022-12-20T10:05:58.963Z,7.63
2022-12-20T10:09:31.851Z,6.68
2022-12-20T10:12:42.899Z,5.72
2022-12-20T10:15:54.912Z,6.95
2022-12-20T10:19:22.121Z,6.85
2022-12-20T10:22:30.729Z,6.35
2022-12-20T10:28:37.165Z,6.60
2022-12-20T10:31:40.992Z,6.13
2022-12-20T10:35:10.765Z,5.18
2022-12-20T10:38:17.816Z,7.20
2022-12-20T10:41:24.521Z,6.45
2022-12-20T10:44:29.991Z,6.53
2022-12-20T10:47:42.363Z,6.05
2022-12-20T10:50:56.829Z,6.97
2022-12-20T10:54:04.291Z,6.88
2022-12-20T10:57:28.741Z,6.75
2022-12-20T11:00:32.363Z,6.40
2022-12-20T11:03:50.250Z,6.63
2022-12-20T11:06:52.523Z,5.70
2022-12-20T11:10:01.226Z,6.05
2022-12-20T11:13:04.434Z,5.97
2022-12-20T11:16:06.981Z,7.13
2022-12-20T11:19:41.493Z,6.13
2022-12-20T11:23:01.884Z,6.18
2022-12-20T11:26:25.673Z,6.88
2022-12-20T11:29:36.819Z,5.38
2022-12-20T11:33:00.610Z,6.70
2022-12-20T11:36:18.188Z,7.20
2022-12-20T11:39:51.295Z,7.38
2022-12-20T11:43:04.915Z,5.05
2022-12-20T11:46:32.466Z,7.03
2022-12-20T11:49:46.445Z,9.43
2022-12-20T11:53:08.201Z,7.32
2022-12-20T11:56:19.013Z,6.43
2022-12-20T11:59:42.965Z,7.15
2022-12-20T12:02:45.240Z,7.20
2022-12-20T12:06:02.651Z,7.00
2022-12-20T12:09:23.377Z,10.88
2022-12-20T12:12:38.058Z,6.88
2022-12-20T12:15:55.331Z,6.60
2022-12-20T12:19:00.919Z,9.10
2022-12-20T12:22:16.370Z,7.90
2022-12-20T12:25:19.512Z,5.63
2022-12-20T12:28:23.408Z,6.57
2022-12-20T12:31:32.567Z,5.60
2022-12-20T12:34:43.816Z,6.43
2022-12-20T12:38:15.437Z,5.38
2022-12-20T12:41:20.297Z,6.45
2022-12-20T12:44:25.311Z,5.30
2022-12-20T12:47:43.503Z,5.80
2022-12-20T12:50:49.396Z,5.97
2022-12-20T12:53:53.970Z,5.88
2022-12-20T12:57:15.495Z,6.25
2022-12-20T13:00:54.527Z,7.97
2022-12-20T13:04:02.139Z,5.45
2022-12-20T13:07:43.704Z,5.35
2022-12-20T13:10:45.778Z,5.75
2022-12-20T13:13:48.197Z,6.70
2022-12-20T13:17:17.224Z,7.93
2022-12-20T13:20:30.026Z,9.63
2022-12-20T13:23:32.103Z,8.38
2022-12-20T13:26:57.113Z,9.10
2022-12-20T13:30:07.929Z,9.20
2022-12-20T13:33:24.620Z,7.38
2022-12-20T13:36:39.389Z,7.30
2022-12-20T13:39:50.887Z,8.23
2022-12-20T13:42:57.141Z,8.00
2022-12-20T13:46:14.885Z,7.38
2022-12-20T13:49:28.132Z,7.63
2022-12-20T13:52:43.287Z,7.75
2022-12-20T13:55:45.960Z,9.10
2022-12-20T13:58:48.280Z,7.45
2022-12-20T14:01:53.474Z,8.38
2022-12-20T14:05:26.767Z,7.47
2022-12-20T14:08:38.880Z,7.10
2022-12-20T14:11:47.818Z,5.13
2022-12-20T14:14:51.574Z,8.93
2022-12-20T14:17:54.013Z,10.50
2022-12-20T14:20:59.778Z,9.77
2022-12-20T14:24:05.622Z,10.65
2022-12-20T14:27:12.523Z,10.85
2022-12-20T14:30:36.697Z,10.98
2022-12-20T14:33:43.191Z,10.35
2022-12-20T14:36:50.153Z,12.25
2022-12-20T14:40:13.508Z,10.77
2022-12-20T14:43:17.138Z,11.00
2022-12-20T14:46:23.537Z,10.70
2022-12-20T14:50:08.859Z,12.80
2022-12-20T14:53:20.557Z,11.65
2022-12-20T14:56:29.700Z,12.10
2022-12-20T14:59:34.062Z,10.98
2022-12-20T15:03:01.821Z,11.82
2022-12-20T15:06:05.781Z,11.20
2022-12-20T15:09:08.927Z,14.82
2022-12-20T15:12:13.090Z,10.85
2022-12-20T15:15:31.226Z,10.88
2022-12-20T15:18:33.720Z,10.40
2022-12-20T15:21:40.595Z,11.68
2022-12-20T15:24:45.218Z,11.00
2022-12-20T15:27:47.353Z,13.20
2022-12-20T15:30:51.399Z,13.52
2022-12-20T15:33:59.575Z,12.70
2022-12-20T15:37:02.745Z,12.50
2022-12-20T15:40:05.194Z,12.88
2022-12-20T15:43:14.177Z,13.63
2022-12-20T15:46:17.589Z,13.32
2022-12-20T15:49:21.441Z,15.25
2022-12-20T15:52:25.630Z,14.20
2022-12-20T15:55:28.190Z,14.88
2022-12-20T15:58:30.656Z,13.00
2022-12-20T16:01:40.704Z,12.40
2022-12-20T16:04:43.147Z,15.00
2022-12-20T16:07:45.196Z,13.68
2022-12-20T16:10:48.123Z,13.80
2022-12-20T16:13:54.235Z,13.65
2022-12-20T16:16:56.413Z,13.30
2022-12-20T16:19:59.317Z,13.30
2022-12-20T16:23:04.918Z,13.75
2022-12-20T16:26:07.219Z,12.95
2022-12-20T16:29:09.390Z,12.50
2022-12-20T16:32:16.472Z,7.03
2022-12-20T16:38:27.834Z,13.27
2022-12-20T16:41:33.057Z,15.15
2022-12-20T16:44:35.126Z,17.80
2022-12-20T16:47:38.100Z,35.13
2022-12-20T16:50:43.551Z,50.38
2022-12-20T16:54:17.518Z,26.52
2022-12-20T16:57:08.932Z,19.90
2022-12-20T17:00:17.611Z,21.23
2022-12-20T17:03:20.039Z,20.60
2022-12-20T17:06:22.304Z,23.25
2022-12-20T17:09:24.494Z,39.97
2022-12-20T17:12:26.665Z,27.83
2022-12-20T17:15:32.055Z,35.15
2022-12-20T17:18:34.051Z,22.73
2022-12-20T17:24:58.343Z,22.58
2022-12-20T17:28:01.824Z,25.52
2022-12-20T17:31:08.166Z,26.58
2022-12-20T17:34:23.744Z,63.33
2022-12-20T17:37:25.761Z,61.47
2022-12-20T17:40:29.061Z,22.98
2022-12-20T17:43:31.146Z,28.88
2022-12-20T17:46:33.203Z,27.75
2022-12-20T17:49:35.164Z,23.77
2022-12-20T17:52:38.165Z,35.10
2022-12-20T17:55:40.465Z,25.42
2022-12-20T17:58:43.968Z,34.10
2022-12-20T18:01:48.435Z,57.30
2022-12-20T18:04:51.363Z,22.30
2022-12-20T18:07:55.504Z,20.92
2022-12-20T18:10:58.637Z,21.75
2022-12-20T18:14:01.415Z,21.20
2022-12-20T18:17:03.526Z,16.27
2022-12-20T18:20:07.913Z,15.52
2022-12-20T18:23:10.080Z,18.58
2022-12-20T18:26:20.917Z,16.95
2022-12-20T18:29:23.051Z,58.80
2022-12-20T18:32:25.257Z,25.67
2022-12-20T18:35:28.407Z,16.88
2022-12-20T18:38:33.619Z,15.85
2022-12-20T18:41:36.425Z,14.05
2022-12-20T18:44:43.040Z,16.05
2022-12-20T18:47:45.365Z,14.98
2022-12-20T18:50:48.108Z,17.33
2022-12-20T18:53:51.615Z,15.68
2022-12-20T18:56:53.865Z,15.90
2022-12-20T18:59:55.978Z,15.98
2022-12-20T19:03:00.284Z,30.92
2022-12-20T19:06:08.985Z,21.40
2022-12-20T19:12:14.991Z,16.50
2022-12-20T19:15:21.247Z,17.38
2022-12-20T19:18:23.303Z,14.93
2022-12-20T19:21:27.967Z,15.13
2022-12-20T19:24:30.322Z,15.43
2022-12-20T19:27:32.448Z,16.63
2022-12-20T19:30:34.740Z,16.15
2022-12-20T19:33:40.942Z,15.85
2022-12-20T19:36:46.671Z,17.73
2022-12-20T19:39:49.677Z,16.45
2022-12-20T19:42:56.446Z,17.38
2022-12-20T19:45:59.570Z,15.88
2022-12-20T19:49:04.786Z,15.27
2022-12-20T19:52:08.982Z,17.08
2022-12-20T19:55:11.097Z,15.98
2022-12-20T19:58:13.662Z,17.90
2022-12-20T20:01:18.146Z,18.17
2022-12-20T20:04:20.521Z,23.13
2022-12-20T20:07:25.068Z,19.98
2022-12-20T20:10:27.471Z,21.40
2022-12-20T20:13:30.120Z,20.27
2022-12-20T20:16:32.631Z,20.80
2022-12-20T20:19:34.898Z,20.02
2022-12-20T20:22:36.906Z,19.77
2022-12-20T20:25:46.158Z,16.42
2022-12-20T20:28:48.372Z,17.20
2022-12-20T20:31:53.430Z,17.08
2022-12-20T20:34:56.023Z,17.95
2022-12-20T20:37:58.897Z,19.77
2022-12-20T20:41:01.180Z,17.83
2022-12-20T20:44:03.461Z,18.20
2022-12-20T20:47:05.806Z,18.92
2022-12-20T20:50:08.999Z,18.08
2022-12-20T20:53:12.171Z,19.10
2022-12-20T20:56:14.709Z,18.98
2022-12-20T20:59:18.090Z,18.23
2022-12-20T21:02:22.098Z,19.45
2022-12-20T21:08:49.321Z,20.17
2022-12-20T21:11:52.106Z,19.90
2022-12-20T21:15:21.139Z,20.73
2022-12-20T21:18:16.925Z,19.08
2022-12-20T21:21:20.759Z,19.02
2022-12-20T21:24:22.884Z,19.08
2022-12-20T21:27:25.380Z,18.58
2022-12-20T21:30:28.192Z,18.58
2022-12-20T21:33:30.427Z,18.05
2022-12-20T21:36:32.502Z,17.73
2022-12-20T21:39:35.388Z,20.55
2022-12-20T21:42:37.830Z,17.38
2022-12-20T21:45:39.950Z,17.27
2022-12-20T21:48:44.256Z,15.43
2022-12-20T21:51:46.735Z,15.00
2022-12-20T21:54:48.816Z,17.10
2022-12-20T21:57:54.353Z,18.88
2022-12-20T22:00:57.524Z,19.42
2022-12-20T22:04:02.573Z,16.08
2022-12-20T22:07:04.581Z,17.35
2022-12-20T22:10:08.308Z,17.13
2022-12-20T22:13:11.753Z,15.73
2022-12-20T22:16:16.779Z,16.88
2022-12-20T22:19:19.233Z,16.65
2022-12-20T22:22:21.339Z,16.33
2022-12-20T22:25:24.775Z,16.55
2022-12-20T22:28:27.310Z,14.85
2022-12-20T22:31:31.608Z,14.35
2022-12-20T22:34:33.710Z,14.48
2022-12-20T22:37:35.789Z,15.48
2022-12-20T22:40:38.393Z,16.50
2022-12-20T22:43:44.681Z,16.20
2022-12-20T22:46:46.773Z,14.88
2022-12-20T22:49:48.959Z,14.25
2022-12-20T22:52:52.456Z,16.17
2022-12-20T22:55:55.333Z,15.88
2022-12-20T22:58:57.542Z,16.80
2022-12-20T23:01:59.731Z,15.35
2022-12-20T23:05:03.269Z,14.88
2022-12-20T23:08:05.420Z,14.27
2022-12-20T23:11:45.636Z,14.93
2022-12-20T23:15:05.931Z,14.80
2022-12-20T23:18:08.053Z,15.65
2022-12-20T23:21:29.418Z,14.52
2022-12-20T23:24:32.481Z,14.00
2022-12-20T23:27:36.018Z,16.45
2022-12-20T23:30:38.017Z,13.70
2022-12-20T23:33:40.436Z,14.98
2022-12-20T23:36:42.747Z,14.25
2022-12-20T23:39:44.775Z,14.10
2022-12-20T23:42:46.993Z,12.15
2022-12-20T23:45:49.195Z,12.93
2022-12-20T23:48:51.959Z,13.05
2022-12-20T23:51:54.064Z,13.25
2022-12-20T23:54:56.123Z,12.77
2022-12-20T23:57:58.304Z,12.80
